createdAt,value
2022-09-14T00:02:42.376Z,16.325989
2022-09-14T00:06:07.430Z,16.33606
2022-09-14T00:09:32.605Z,16.305847
2022-09-14T00:12:57.918Z,16.275635
2022-09-14T00:16:23.078Z,16.245422
2022-09-14T00:19:48.243Z,16.205139
2022-09-14T00:23:13.430Z,16.195068
2022-09-14T00:26:38.614Z,16.174927
2022-09-14T00:30:03.851Z,16.144714
2022-09-14T00:33:28.990Z,16.124573
2022-09-14T00:36:54.211Z,16.144714
2022-09-14T00:40:19.458Z,16.174927
2022-09-14T00:43:44.633Z,16.174927
2022-09-14T00:47:09.876Z,16.195068
2022-09-14T00:50:35.048Z,16.195068
2022-09-14T00:54:00.235Z,16.195068
2022-09-14T00:57:25.434Z,16.195068
2022-09-14T01:00:50.643Z,16.235352
2022-09-14T01:04:15.821Z,16.225281
2022-09-14T01:07:40.975Z,16.225281
2022-09-14T01:11:06.148Z,16.235352
2022-09-14T01:14:31.356Z,16.205139
2022-09-14T01:17:56.530Z,16.205139
2022-09-14T01:21:21.741Z,16.195068
2022-09-14T01:24:46.956Z,16.154785
2022-09-14T01:28:12.115Z,16.124573
2022-09-14T01:31:37.361Z,16.114502
2022-09-14T01:35:02.485Z,16.114502
2022-09-14T01:38:27.686Z,16.08429
2022-09-14T01:41:52.872Z,16.08429
2022-09-14T01:45:18.154Z,16.08429
2022-09-14T01:48:43.329Z,16.09436
2022-09-14T01:52:08.422Z,16.074219
2022-09-14T01:55:33.716Z,16.054077
2022-09-14T01:58:58.769Z,16.023865
2022-09-14T02:02:24.022Z,16.023865
2022-09-14T02:05:49.125Z,16.023865
2022-09-14T02:09:14.277Z,16.023865
2022-09-14T02:12:39.491Z,16.023865
2022-09-14T02:16:04.703Z,16.054077
2022-09-14T02:19:29.836Z,16.023865
2022-09-14T02:22:55.044Z,16.074219
2022-09-14T02:26:20.256Z,16.054077
2022-09-14T02:29:45.461Z,16.054077
2022-09-14T02:33:10.615Z,16.09436
2022-09-14T02:36:35.809Z,16.08429
2022-09-14T02:40:01.047Z,16.08429
2022-09-14T02:43:26.251Z,16.09436
2022-09-14T02:46:51.659Z,16.114502
2022-09-14T02:50:16.706Z,16.114502
2022-09-14T02:53:41.892Z,16.114502
2022-09-14T02:57:07.064Z,16.114502
2022-09-14T03:00:32.328Z,16.08429
2022-09-14T03:03:57.475Z,16.054077
2022-09-14T03:07:22.662Z,16.054077
2022-09-14T03:10:47.845Z,16.044006
2022-09-14T03:14:13.028Z,16.013794
2022-09-14T03:17:38.197Z,16.013794
2022-09-14T03:21:03.493Z,16.013794
2022-09-14T03:24:28.593Z,16.013794
2022-09-14T03:27:53.765Z,16.013794
2022-09-14T03:31:19.027Z,16.023865
2022-09-14T03:34:44.174Z,16.044006
2022-09-14T03:38:09.388Z,16.044006
2022-09-14T03:41:34.554Z,16.054077
2022-09-14T03:44:59.738Z,16.074219
2022-09-14T03:48:24.924Z,16.054077
2022-09-14T03:51:53.546Z,16.08429
2022-09-14T03:55:16.934Z,16.054077
2022-09-14T03:58:42.933Z,16.044006
2022-09-14T04:02:10.850Z,16.054077
2022-09-14T04:05:36.630Z,16.044006
2022-09-14T04:09:01.874Z,16.074219
2022-09-14T04:12:27.240Z,16.074219
2022-09-14T04:15:52.350Z,16.054077
2022-09-14T04:19:25.204Z,16.08429
2022-09-14T04:22:51.318Z,16.054077
2022-09-14T04:26:16.466Z,16.074219
2022-09-14T04:29:41.744Z,16.044006
2022-09-14T04:33:06.831Z,16.023865
2022-09-14T04:36:32.057Z,16.003723
2022-09-14T04:39:57.319Z,15.96344
2022-09-14T04:43:22.453Z,15.943298
2022-09-14T04:46:47.830Z,15.973511
2022-09-14T04:50:12.861Z,16.003723
2022-09-14T04:53:38.065Z,15.973511
2022-09-14T04:57:03.289Z,15.96344
2022-09-14T05:00:28.489Z,15.96344
2022-09-14T05:03:53.741Z,15.973511
2022-09-14T05:07:18.920Z,15.973511
2022-09-14T05:10:44.108Z,16.003723
2022-09-14T05:14:09.285Z,16.013794
2022-09-14T05:17:34.486Z,16.044006
2022-09-14T05:20:59.749Z,16.023865
2022-09-14T05:24:24.900Z,16.013794
2022-09-14T05:27:50.120Z,16.074219
2022-09-14T05:31:15.387Z,16.003723
2022-09-14T05:34:40.594Z,16.003723
2022-09-14T05:38:05.857Z,16.003723
2022-09-14T05:41:31.030Z,16.003723
2022-09-14T05:44:56.312Z,15.943298
2022-09-14T05:48:21.504Z,15.973511
2022-09-14T05:51:46.692Z,16.013794
2022-09-14T05:55:11.896Z,16.054077
2022-09-14T05:58:37.092Z,16.074219
2022-09-14T06:02:02.455Z,16.09436
2022-09-14T06:05:27.589Z,16.08429
2022-09-14T06:08:52.808Z,16.09436
2022-09-14T06:12:18.014Z,16.08429
2022-09-14T06:15:43.154Z,16.08429
2022-09-14T06:19:08.338Z,16.154785
2022-09-14T06:22:33.528Z,16.195068
2022-09-14T06:25:58.735Z,16.225281
2022-09-14T06:29:23.962Z,16.235352
2022-09-14T06:32:49.201Z,16.245422
2022-09-14T06:36:14.415Z,16.275635
2022-09-14T06:39:39.626Z,16.305847
2022-09-14T06:43:04.868Z,16.275635
2022-09-14T06:46:30.162Z,16.295776
2022-09-14T06:49:55.308Z,16.325989
2022-09-14T06:53:20.498Z,16.33606
2022-09-14T06:56:45.787Z,16.34613
2022-09-14T07:00:11.083Z,16.34613
2022-09-14T07:03:36.474Z,16.376343
2022-09-14T07:07:01.570Z,16.33606
2022-09-14T07:10:26.810Z,16.33606
2022-09-14T07:13:52.024Z,16.33606
2022-09-14T07:17:17.286Z,16.325989
2022-09-14T07:20:42.548Z,16.34613
2022-09-14T07:24:07.757Z,16.376343
2022-09-14T07:27:33.006Z,16.406555
2022-09-14T07:30:59.068Z,16.446838
2022-09-14T07:34:23.429Z,16.416626
2022-09-14T07:37:48.790Z,16.446838
2022-09-14T07:41:13.852Z,16.456909
2022-09-14T07:44:39.109Z,16.456909
2022-09-14T07:48:04.315Z,16.477051
2022-09-14T07:51:29.505Z,16.487122
2022-09-14T07:54:54.770Z,16.477051
2022-09-14T07:58:19.959Z,16.497192
2022-09-14T08:01:45.213Z,16.567688
2022-09-14T08:05:10.407Z,16.577759
2022-09-14T08:08:35.603Z,16.607971
2022-09-14T08:12:00.874Z,16.607971
2022-09-14T08:15:28.486Z,16.668396
2022-09-14T08:18:51.261Z,16.748962
2022-09-14T08:22:16.386Z,16.789246
2022-09-14T08:25:41.597Z,16.84967
2022-09-14T08:29:06.839Z,16.859741
2022-09-14T08:32:32.011Z,16.889954
2022-09-14T08:35:58.282Z,16.910095
2022-09-14T08:39:22.367Z,16.930237
2022-09-14T08:42:47.583Z,16.960449
2022-09-14T08:46:12.910Z,16.980591
2022-09-14T08:49:38.017Z,17.030945
2022-09-14T08:53:03.257Z,17.081299
2022-09-14T08:56:28.501Z,17.151794
2022-09-14T08:59:53.751Z,17.182007
2022-09-14T09:03:18.968Z,17.212219
2022-09-14T09:06:44.168Z,17.232361
2022-09-14T09:10:09.425Z,17.282715
2022-09-14T09:13:34.611Z,17.312927
2022-09-14T09:16:59.784Z,17.413635
2022-09-14T09:20:25.003Z,17.494202
2022-09-14T09:23:50.225Z,17.554626
2022-09-14T09:27:15.359Z,17.625122
2022-09-14T09:30:40.552Z,17.675476
2022-09-14T09:34:05.724Z,17.695618
2022-09-14T09:37:30.909Z,17.705688
2022-09-14T09:40:56.074Z,17.735901
2022-09-14T09:44:21.268Z,17.695618
2022-09-14T09:47:46.462Z,17.625122
2022-09-14T09:51:11.660Z,17.584839
2022-09-14T09:54:36.943Z,17.625122
2022-09-14T09:58:02.040Z,17.615051
2022-09-14T10:01:27.255Z,17.625122
2022-09-14T10:04:52.402Z,17.655334
2022-09-14T10:08:17.590Z,17.564697
2022-09-14T10:11:42.943Z,17.564697
2022-09-14T10:15:08.021Z,17.584839
2022-09-14T10:18:33.206Z,17.584839
2022-09-14T10:21:58.378Z,17.59491
2022-09-14T10:25:23.574Z,17.625122
2022-09-14T10:28:48.838Z,17.615051
2022-09-14T10:32:13.987Z,17.615051
2022-09-14T10:35:39.225Z,17.584839
2022-09-14T10:39:04.392Z,17.554626
2022-09-14T10:42:29.610Z,17.544556
2022-09-14T10:45:54.972Z,17.494202
2022-09-14T10:49:20.071Z,17.494202
2022-09-14T10:52:45.252Z,17.514343
2022-09-14T10:56:10.440Z,17.514343
2022-09-14T10:59:35.627Z,17.514343
2022-09-14T11:03:01.045Z,17.564697
2022-09-14T11:06:26.077Z,17.584839
2022-09-14T11:09:51.259Z,17.625122
2022-09-14T11:13:16.425Z,17.705688
2022-09-14T11:16:41.611Z,17.836609
2022-09-14T11:20:06.825Z,17.897034
2022-09-14T11:23:32.006Z,17.957458
2022-09-14T11:26:57.197Z,17.987671
2022-09-14T11:30:22.408Z,18.017883
2022-09-14T11:33:47.633Z,18.017883
2022-09-14T11:37:12.877Z,18.027954
2022-09-14T11:40:38.081Z,18.027954
2022-09-14T11:44:03.278Z,18.048096
2022-09-14T11:47:28.477Z,18.068237
2022-09-14T11:50:53.695Z,18.017883
2022-09-14T11:54:18.993Z,17.997742
2022-09-14T11:57:44.145Z,18.017883
2022-09-14T12:01:09.387Z,18.048096
2022-09-14T12:04:34.599Z,18.048096
2022-09-14T12:07:59.791Z,17.997742
2022-09-14T12:11:25.064Z,17.997742
2022-09-14T12:14:50.239Z,18.048096
2022-09-14T12:18:15.443Z,18.048096
2022-09-14T12:21:40.657Z,18.027954
2022-09-14T12:25:05.849Z,18.078308
2022-09-14T12:28:31.170Z,18.09845
2022-09-14T12:31:56.267Z,18.078308
2022-09-14T12:35:21.489Z,18.048096
2022-09-14T12:38:46.704Z,18.078308
2022-09-14T12:42:11.894Z,18.068237
2022-09-14T12:45:38.890Z,18.048096
2022-09-14T12:49:04.086Z,18.017883
2022-09-14T12:52:29.268Z,18.09845
2022-09-14T12:55:54.486Z,18.118591
2022-09-14T12:59:19.706Z,18.199158
2022-09-14T13:02:45.069Z,18.199158
2022-09-14T13:06:10.146Z,18.22937
2022-09-14T13:09:35.343Z,18.269653
2022-09-14T13:13:00.579Z,18.22937
2022-09-14T13:16:25.842Z,18.179016
2022-09-14T13:19:51.015Z,18.209229
2022-09-14T13:23:16.174Z,18.199158
2022-09-14T13:26:41.389Z,18.209229
2022-09-14T13:30:06.565Z,18.22937
2022-09-14T13:33:31.755Z,18.22937
2022-09-14T13:36:56.946Z,18.199158
2022-09-14T13:40:22.283Z,18.168945
2022-09-14T13:43:47.469Z,18.09845
2022-09-14T13:47:12.634Z,18.017883
2022-09-14T13:50:37.883Z,17.927246
2022-09-14T13:54:03.105Z,17.85675
2022-09-14T13:57:28.271Z,17.786255
2022-09-14T14:00:53.487Z,17.786255
2022-09-14T14:04:19.170Z,17.745972
2022-09-14T14:07:43.847Z,17.705688
2022-09-14T14:11:09.209Z,17.675476
2022-09-14T14:14:34.234Z,17.655334
2022-09-14T14:17:59.461Z,17.615051
2022-09-14T14:21:24.622Z,17.584839
2022-09-14T14:25:15.189Z,17.554626
2022-09-14T14:28:15.083Z,17.484131
2022-09-14T15:05:08.270Z,17.312927
2022-09-14T15:08:33.422Z,17.282715
2022-09-14T15:11:58.604Z,17.312927
2022-09-14T15:15:23.754Z,17.333069
2022-09-14T15:18:48.985Z,17.373352
2022-09-14T15:22:14.187Z,17.373352
2022-09-14T15:25:39.365Z,17.413635
2022-09-14T15:29:04.533Z,17.443848
2022-09-14T15:32:29.710Z,17.443848
2022-09-14T15:35:54.902Z,17.433777
2022-09-14T15:39:20.132Z,17.443848
2022-09-14T15:42:45.277Z,17.403564
2022-09-14T15:46:10.506Z,17.383423
2022-09-14T15:49:35.633Z,17.312927
2022-09-14T15:53:02.756Z,17.282715
2022-09-14T15:56:26.045Z,17.252502
2022-09-14T15:59:51.181Z,17.252502
2022-09-14T16:03:16.382Z,17.192078
2022-09-14T16:06:41.581Z,17.192078
2022-09-14T16:10:06.755Z,17.182007
2022-09-14T16:13:31.976Z,17.212219
2022-09-14T16:16:58.860Z,17.212219
2022-09-14T16:20:24.006Z,17.192078
2022-09-14T16:23:49.182Z,17.212219
2022-09-14T16:27:14.376Z,17.232361
2022-09-14T16:30:39.563Z,17.192078
2022-09-14T16:34:04.717Z,17.161865
2022-09-14T16:37:29.927Z,17.081299
2022-09-14T16:40:55.133Z,17.081299
2022-09-14T16:44:20.359Z,17.071228
2022-09-14T16:47:45.532Z,17.071228
2022-09-14T16:51:10.704Z,17.071228
2022-09-14T16:54:35.860Z,17.121582
2022-09-14T16:58:01.128Z,17.141724
2022-09-14T17:01:26.422Z,17.161865
2022-09-14T17:04:51.586Z,17.161865
2022-09-14T17:08:16.797Z,17.212219
2022-09-14T17:11:41.950Z,17.182007
2022-09-14T17:15:07.161Z,17.232361
2022-09-14T17:18:32.438Z,17.282715
2022-09-14T17:21:57.686Z,17.282715
2022-09-14T17:25:22.997Z,17.252502
2022-09-14T17:28:48.248Z,17.262573
2022-09-14T17:32:14.989Z,17.232361
2022-09-14T17:35:38.874Z,17.232361
2022-09-14T17:39:06.882Z,17.212219
2022-09-14T17:42:29.344Z,17.252502
2022-09-14T17:45:54.890Z,17.232361
2022-09-14T17:49:20.092Z,17.262573
2022-09-14T17:52:45.329Z,17.312927
2022-09-14T17:56:10.683Z,17.302856
2022-09-14T17:59:35.794Z,17.262573
2022-09-14T18:03:01.018Z,17.262573
2022-09-14T18:06:26.258Z,17.252502
2022-09-14T18:09:51.473Z,17.262573
2022-09-14T18:13:16.748Z,17.252502
2022-09-14T18:16:42.004Z,17.232361
2022-09-14T18:20:07.183Z,17.252502
2022-09-14T18:23:32.417Z,17.252502
2022-09-14T18:26:57.701Z,17.22229
2022-09-14T18:30:22.982Z,17.151794
2022-09-14T18:33:48.186Z,17.182007
2022-09-14T18:37:13.401Z,17.161865
2022-09-14T18:40:38.741Z,17.151794
2022-09-14T18:44:03.852Z,17.111511
2022-09-14T18:47:29.208Z,17.121582
2022-09-14T18:50:54.329Z,17.141724
2022-09-14T18:54:21.426Z,17.121582
2022-09-14T18:57:44.774Z,17.111511
2022-09-14T19:01:10.089Z,17.071228
2022-09-14T19:04:35.260Z,17.071228
2022-09-14T19:08:00.466Z,17.061157
2022-09-14T19:11:25.700Z,17.061157
2022-09-14T19:14:50.946Z,17.030945
2022-09-14T19:18:16.153Z,17.030945
2022-09-14T19:21:41.425Z,17.030945
2022-09-14T19:25:06.659Z,17.041016
2022-09-14T19:28:31.865Z,17.010803
2022-09-14T19:31:57.084Z,17.030945
2022-09-14T19:35:22.347Z,17.010803
2022-09-14T19:38:47.716Z,17.010803
2022-09-14T19:42:12.914Z,17.010803
2022-09-14T19:45:38.171Z,17.010803
2022-09-14T19:49:03.362Z,17.010803
2022-09-14T19:52:28.551Z,17.030945
2022-09-14T19:55:53.885Z,17.000732
2022-09-14T19:59:18.934Z,17.030945
2022-09-14T20:02:44.214Z,16.97052
2022-09-14T20:06:09.318Z,17.000732
2022-09-14T20:09:34.492Z,16.960449
2022-09-14T20:12:59.688Z,16.97052
2022-09-14T20:16:24.941Z,16.97052
2022-09-14T20:19:50.083Z,16.940308
2022-09-14T20:23:15.251Z,16.910095
2022-09-14T20:26:40.429Z,16.930237
2022-09-14T20:30:05.729Z,16.889954
2022-09-14T20:33:30.805Z,16.930237
2022-09-14T20:36:55.982Z,16.940308
2022-09-14T20:40:21.167Z,16.940308
2022-09-14T20:43:46.327Z,16.940308
2022-09-14T20:47:11.615Z,16.930237
2022-09-14T20:50:36.697Z,16.910095
2022-09-14T20:54:01.890Z,16.910095
2022-09-14T20:57:27.059Z,16.889954
2022-09-14T21:00:52.241Z,16.859741
2022-09-14T21:04:17.499Z,16.859741
2022-09-14T21:07:42.658Z,16.859741
2022-09-14T21:11:07.832Z,16.859741
2022-09-14T21:14:33.007Z,16.879883
2022-09-14T21:17:58.176Z,16.889954
2022-09-14T21:21:23.383Z,16.819458
2022-09-14T21:24:48.548Z,16.698608
2022-09-14T21:28:13.749Z,16.5979
2022-09-14T21:31:38.981Z,16.497192
2022-09-14T21:35:04.146Z,16.426697
2022-09-14T21:38:29.364Z,16.406555
2022-09-14T21:41:58.275Z,16.386414
2022-09-14T21:45:19.760Z,16.34613
2022-09-14T21:48:44.979Z,16.325989
2022-09-14T21:52:10.201Z,16.265564
2022-09-14T21:55:35.461Z,16.245422
2022-09-14T21:59:00.554Z,16.174927
2022-09-14T22:02:25.830Z,16.174927
2022-09-14T22:05:54.562Z,16.124573
2022-09-14T22:09:16.140Z,16.114502
2022-09-14T22:12:41.357Z,16.09436
2022-09-14T22:16:06.547Z,16.074219
2022-09-14T22:19:31.676Z,16.013794
2022-09-14T22:22:56.871Z,16.003723
2022-09-14T22:26:22.034Z,15.96344
2022-09-14T22:29:47.342Z,15.923157
2022-09-14T22:33:12.417Z,15.892944
2022-09-14T22:36:37.600Z,15.872803
2022-09-14T22:40:02.884Z,15.862732
2022-09-14T22:43:27.971Z,15.802307
2022-09-14T22:46:53.248Z,15.721741
2022-09-14T22:50:18.369Z,15.641174
2022-09-14T22:53:43.546Z,15.570679
2022-09-14T22:57:08.703Z,15.560608
2022-09-14T23:00:33.890Z,15.59082
2022-09-14T23:03:59.109Z,15.560608
2022-09-14T23:07:24.297Z,15.540466
2022-09-14T23:10:49.497Z,15.490112
2022-09-14T23:14:14.673Z,15.4599
2022-09-14T23:17:39.862Z,15.469971
2022-09-14T23:21:05.058Z,15.409546
2022-09-14T23:24:30.232Z,15.439758
2022-09-14T23:27:55.436Z,15.4599
2022-09-14T23:31:20.661Z,15.4599
2022-09-14T23:34:45.816Z,15.409546
2022-09-14T23:38:11.028Z,15.429688
2022-09-14T23:41:36.195Z,15.429688
2022-09-14T23:45:01.381Z,15.439758
2022-09-14T23:48:26.558Z,15.389404
2022-09-14T23:51:51.776Z,15.389404
2022-09-14T23:55:17.056Z,15.389404
2022-09-14T23:58:42.358Z,15.409546
